createdAt,value
2019-04-07T00:00:02.797Z,87.30
2019-04-07T00:02:30.368Z,87.60
2019-04-07T00:04:55.879Z,87.30
2019-04-07T00:07:21.233Z,87.60
2019-04-07T00:09:46.611Z,88.20
2019-04-07T00:12:12.463Z,89.40
2019-04-07T00:14:38.030Z,88.90
2019-04-07T00:17:03.362Z,89.20
2019-04-07T00:19:29.351Z,89.50
2019-04-07T00:21:54.836Z,88.70
2019-04-07T00:24:20.193Z,88.60
2019-04-07T00:26:45.706Z,89.60
2019-04-07T00:29:11.121Z,89.10
2019-04-07T00:31:36.558Z,89.60
2019-04-07T00:34:01.897Z,90.50
2019-04-07T00:36:27.857Z,90.20
2019-04-07T00:38:53.735Z,90.40
2019-04-07T00:41:19.931Z,90.30
2019-04-07T00:43:45.994Z,90.50
2019-04-07T00:46:11.519Z,90.20
2019-04-07T00:48:37.038Z,91.00
2019-04-07T00:51:02.390Z,90.90
2019-04-07T00:53:27.770Z,90.80
2019-04-07T00:55:53.120Z,91.50
2019-04-07T00:58:19.183Z,91.40
2019-04-07T01:00:44.666Z,91.50
2019-04-07T01:03:10.617Z,91.20
2019-04-07T01:05:38.941Z,91.40
2019-04-07T01:08:04.307Z,91.40
2019-04-07T01:10:29.657Z,91.50
2019-04-07T01:12:55.569Z,91.90
2019-04-07T01:15:20.987Z,91.80
2019-04-07T01:17:46.558Z,91.80
2019-04-07T01:20:14.023Z,92.10
2019-04-07T01:22:39.889Z,91.80
2019-04-07T01:25:06.235Z,92.00
2019-04-07T01:27:31.654Z,91.80
2019-04-07T01:29:57.013Z,91.80
2019-04-07T01:32:22.461Z,91.60
2019-04-07T01:34:47.834Z,91.80
2019-04-07T01:37:13.695Z,91.90
2019-04-07T01:39:39.489Z,92.20
2019-04-07T01:42:16.685Z,92.30
2019-04-07T01:45:01.456Z,91.80
2019-04-07T01:47:33.111Z,92.80
2019-04-07T01:50:29.830Z,93.00
2019-04-07T01:53:17.948Z,92.50
2019-04-07T01:56:20.790Z,92.60
2019-04-07T01:59:12.172Z,91.90
2019-04-07T02:01:59.586Z,92.20
2019-04-07T02:04:56.259Z,93.10
2019-04-07T02:07:53.233Z,93.10
2019-04-07T02:10:29.066Z,93.00
2019-04-07T02:13:20.730Z,92.80
2019-04-07T02:16:09.202Z,93.40
2019-04-07T02:18:54.226Z,94.00
2019-04-07T02:21:34.926Z,93.10
2019-04-07T02:24:13.060Z,93.00
2019-04-07T02:26:49.753Z,93.10
2019-04-07T02:29:43.437Z,93.70
2019-04-07T02:32:16.047Z,93.90
2019-04-07T02:34:51.345Z,93.20
2019-04-07T02:37:42.579Z,93.40
2019-04-07T02:40:21.482Z,93.40
2019-04-07T02:43:09.093Z,93.80
2019-04-07T02:45:59.843Z,94.80
2019-04-07T02:48:37.485Z,94.10
2019-04-07T02:51:40.488Z,94.90
2019-04-07T02:54:22.878Z,93.80
2019-04-07T02:57:07.984Z,93.70
2019-04-07T02:59:53.367Z,94.30
2019-04-07T03:02:50.372Z,94.40
2019-04-07T03:05:40.740Z,94.90
2019-04-07T03:08:23.764Z,93.60
2019-04-07T03:11:07.570Z,93.60
2019-04-07T03:13:51.952Z,94.40
2019-04-07T03:16:40.406Z,94.50
2019-04-07T03:19:25.430Z,95.10
2019-04-07T03:22:06.402Z,94.80
2019-04-07T03:25:09.847Z,94.50
2019-04-07T03:27:48.654Z,94.60
2019-04-07T03:30:33.109Z,94.70
2019-04-07T03:33:13.256Z,95.30
2019-04-07T03:35:56.987Z,94.80
2019-04-07T03:38:31.384Z,94.80
2019-04-07T03:41:18.153Z,94.70
2019-04-07T03:44:14.570Z,95.30
2019-04-07T03:47:14.360Z,95.40
2019-04-07T03:49:51.197Z,94.20
2019-04-07T03:52:54.463Z,95.50
2019-04-07T03:55:29.943Z,95.60
2019-04-07T03:58:05.882Z,96.00
2019-04-07T04:01:31.344Z,95.30
2019-04-07T04:04:09.662Z,95.60
2019-04-07T04:06:53.446Z,95.50
2019-04-07T04:09:42.206Z,95.40
2019-04-07T04:12:27.491Z,95.80
2019-04-07T04:15:06.748Z,95.50
2019-04-07T04:17:32.718Z,95.80
2019-04-07T04:19:58.650Z,95.80
2019-04-07T04:22:24.214Z,96.20
2019-04-07T04:24:52.158Z,96.40
2019-04-07T04:27:17.519Z,95.70
2019-04-07T04:29:43.546Z,95.70
2019-04-07T04:32:09.180Z,96.10
2019-04-07T04:34:34.768Z,96.20
2019-04-07T04:37:00.152Z,95.70
2019-04-07T04:39:25.506Z,95.50
2019-04-07T04:41:50.949Z,96.10
2019-04-07T04:44:16.624Z,96.20
2019-04-07T04:46:42.801Z,96.70
2019-04-07T04:49:08.153Z,96.10
2019-04-07T04:51:37.856Z,96.40
2019-04-07T04:54:00.522Z,96.20
2019-04-07T04:56:26.105Z,96.10
2019-04-07T04:58:52.007Z,96.20
2019-04-07T05:01:18.623Z,96.40
2019-04-07T05:03:44.077Z,96.20
2019-04-07T05:06:10.241Z,96.00
2019-04-07T05:08:36.107Z,96.50
2019-04-07T05:11:01.648Z,97.40
2019-04-07T05:13:27.344Z,97.20
2019-04-07T05:15:52.720Z,96.50
2019-04-07T05:18:18.051Z,96.80
2019-04-07T05:20:44.313Z,96.60
2019-04-07T05:23:09.855Z,97.00
2019-04-07T05:25:35.169Z,96.80
2019-04-07T05:28:01.154Z,96.70
2019-04-07T05:30:27.025Z,96.70
2019-04-07T05:32:52.497Z,96.50
2019-04-07T05:35:18.689Z,96.30
2019-04-07T05:37:44.708Z,96.50
2019-04-07T05:40:10.261Z,96.10
2019-04-07T05:42:35.654Z,95.80
2019-04-07T05:45:00.996Z,95.60
2019-04-07T05:47:26.697Z,95.50
2019-04-07T05:49:55.291Z,95.30
2019-04-07T05:52:19.338Z,95.30
2019-04-07T05:54:45.083Z,94.80
2019-04-07T05:57:10.662Z,94.40
2019-04-07T05:59:36.656Z,94.00
2019-04-07T06:02:03.632Z,94.10
2019-04-07T06:04:29.160Z,94.20
2019-04-07T06:06:56.196Z,94.00
2019-04-07T06:09:21.734Z,91.90
2019-04-07T06:11:47.614Z,89.80
2019-04-07T06:14:15.058Z,86.20
2019-04-07T06:16:40.623Z,84.50
2019-04-07T06:19:08.093Z,80.20
2019-04-07T06:21:33.494Z,76.60
2019-04-07T06:24:00.596Z,76.20
2019-04-07T06:26:26.643Z,72.90
2019-04-07T06:28:56.989Z,70.30
2019-04-07T06:31:19.620Z,70.50
2019-04-07T06:33:45.765Z,66.90
2019-04-07T06:36:11.582Z,65.70
2019-04-07T06:38:41.516Z,64.60
2019-04-07T06:41:04.017Z,63.60
2019-04-07T06:43:29.420Z,66.50
2019-04-07T06:46:08.245Z,63.60
2019-04-07T06:48:38.025Z,64.30
2019-04-07T06:51:08.468Z,59.90
2019-04-07T06:53:52.428Z,61.50
2019-04-07T06:56:34.318Z,59.20
2019-04-07T06:59:22.954Z,60.70
2019-04-07T07:02:08.642Z,59.20
2019-04-07T07:04:51.974Z,57.80
2019-04-07T07:07:38.900Z,57.60
2019-04-07T07:10:30.347Z,58.10
2019-04-07T07:13:09.411Z,59.50
2019-04-07T07:15:59.059Z,56.20
2019-04-07T07:18:47.105Z,56.80
2019-04-07T07:21:34.058Z,57.60
2019-04-07T07:23:57.882Z,56.80
2019-04-07T07:26:23.500Z,57.30
2019-04-07T07:28:48.805Z,58.40
2019-04-07T07:31:14.356Z,56.70
2019-04-07T07:33:41.601Z,58.70
2019-04-07T07:36:26.338Z,58.30
2019-04-07T07:38:58.973Z,57.50
2019-04-07T07:41:20.621Z,57.80
2019-04-07T07:43:46.053Z,58.00
2019-04-07T07:46:11.936Z,58.30
2019-04-07T07:48:37.726Z,59.00
2019-04-07T07:51:03.956Z,57.80
2019-04-07T07:53:29.492Z,57.80
2019-04-07T07:55:55.430Z,58.40
2019-04-07T07:58:20.949Z,58.40
2019-04-07T08:00:47.006Z,57.70
2019-04-07T08:03:13.526Z,58.50
2019-04-07T08:05:38.868Z,59.40
2019-04-07T08:08:04.783Z,59.50
2019-04-07T08:10:30.356Z,58.50
2019-04-07T08:12:56.305Z,57.90
2019-04-07T08:15:25.420Z,59.30
2019-04-07T08:17:48.697Z,58.70
2019-04-07T08:20:14.205Z,60.40
2019-04-07T08:22:43.002Z,59.30
2019-04-07T08:25:07.137Z,57.60
2019-04-07T08:27:33.155Z,58.60
2019-04-07T08:29:58.865Z,57.30
2019-04-07T08:32:27.359Z,58.50
2019-04-07T08:34:51.494Z,58.00
2019-04-07T08:37:17.931Z,57.70
2019-04-07T08:39:44.114Z,57.00
2019-04-07T08:42:12.043Z,56.20
2019-04-07T08:44:36.759Z,56.00
2019-04-07T08:47:02.624Z,56.60
2019-04-07T08:49:28.081Z,55.70
2019-04-07T08:51:54.914Z,55.70
2019-04-07T08:54:20.373Z,56.30
2019-04-07T08:56:45.858Z,54.90
2019-04-07T08:59:15.731Z,55.80
2019-04-07T09:01:38.207Z,54.70
2019-04-07T09:04:04.422Z,55.70
2019-04-07T09:06:30.389Z,55.00
2019-04-07T09:08:56.425Z,54.40
2019-04-07T09:11:23.669Z,54.20
2019-04-07T09:13:52.830Z,54.70
2019-04-07T09:16:37.118Z,55.50
2019-04-07T09:19:27.296Z,53.90
2019-04-07T09:22:07.454Z,55.00
2019-04-07T09:25:03.320Z,55.00
2019-04-07T09:27:48.017Z,54.60
2019-04-07T09:30:32.378Z,53.30
2019-04-07T09:33:15.049Z,53.50
2019-04-07T09:36:12.232Z,53.70
2019-04-07T09:39:17.726Z,55.10
2019-04-07T09:41:56.330Z,56.10
2019-04-07T09:44:37.633Z,55.10
2019-04-07T09:47:15.927Z,55.50
2019-04-07T09:50:11.353Z,55.30
2019-04-07T09:52:53.618Z,56.10
2019-04-07T09:55:37.927Z,51.60
2019-04-07T09:58:23.953Z,52.00
2019-04-07T10:01:21.069Z,50.10
2019-04-07T10:04:12.113Z,48.40
2019-04-07T10:07:03.775Z,47.70
2019-04-07T10:09:47.783Z,47.50
2019-04-07T10:12:36.159Z,48.40
2019-04-07T10:15:19.879Z,47.20
2019-04-07T10:17:54.178Z,45.60
2019-04-07T10:20:29.438Z,45.50
2019-04-07T10:23:23.163Z,47.50
2019-04-07T10:25:58.413Z,45.00
2019-04-07T10:28:38.649Z,45.90
2019-04-07T10:31:20.494Z,44.20
2019-04-07T10:34:00.644Z,46.30
2019-04-07T10:36:51.174Z,45.90
2019-04-07T10:39:39.164Z,43.10
2019-04-07T10:42:40.119Z,44.40
2019-04-07T10:45:26.976Z,42.10
2019-04-07T10:48:15.621Z,42.20
2019-04-07T10:51:00.226Z,45.20
2019-04-07T10:53:43.573Z,43.20
2019-04-07T10:56:18.768Z,40.20
2019-04-07T10:59:06.334Z,42.60
2019-04-07T11:01:56.768Z,42.20
2019-04-07T11:04:39.801Z,42.60
2019-04-07T11:07:23.769Z,44.10
2019-04-07T11:10:05.323Z,43.00
2019-04-07T11:12:56.081Z,42.00
2019-04-07T11:15:46.709Z,42.20
2019-04-07T11:18:29.642Z,40.80
2019-04-07T11:21:03.362Z,43.50
2019-04-07T11:23:45.727Z,42.00
2019-04-07T11:26:45.531Z,42.70
2019-04-07T11:29:28.378Z,43.20
2019-04-07T11:32:19.557Z,40.30
2019-04-07T11:35:01.178Z,40.50
2019-04-07T11:37:39.033Z,40.00
2019-04-07T11:40:11.701Z,41.50
2019-04-07T11:42:59.022Z,39.70
2019-04-07T11:46:00.981Z,38.70
2019-04-07T11:48:44.948Z,40.10
2019-04-07T11:51:26.024Z,40.60
2019-04-07T11:54:14.255Z,38.60
2019-04-07T11:57:07.474Z,39.30
2019-04-07T11:59:57.658Z,39.40
2019-04-07T12:02:43.354Z,36.10
2019-04-07T12:05:46.607Z,36.30
2019-04-07T12:08:36.045Z,37.00
2019-04-07T12:11:16.761Z,38.90
2019-04-07T12:14:01.298Z,37.60
2019-04-07T12:16:45.967Z,38.40
2019-04-07T12:19:36.752Z,39.20
2019-04-07T12:22:19.883Z,39.10
2019-04-07T12:25:20.018Z,36.40
2019-04-07T12:28:03.861Z,38.10
2019-04-07T12:31:07.606Z,37.20
2019-04-07T12:34:05.035Z,35.80
2019-04-07T12:36:38.639Z,38.20
2019-04-07T12:39:33.594Z,38.60
2019-04-07T12:42:07.133Z,39.90
2019-04-07T12:44:38.325Z,38.20
2019-04-07T12:47:22.566Z,37.20
2019-04-07T12:50:18.857Z,37.80
2019-04-07T12:53:14.410Z,39.40
2019-04-07T12:55:56.932Z,39.60
2019-04-07T12:58:36.989Z,40.20
2019-04-07T13:01:24.983Z,39.00
2019-04-07T13:04:13.257Z,38.80
2019-04-07T13:06:49.023Z,37.90
2019-04-07T13:09:39.709Z,37.60
2019-04-07T13:12:20.435Z,37.50
2019-04-07T13:14:50.930Z,37.80
2019-04-07T13:17:37.565Z,36.90
2019-04-07T13:20:18.071Z,36.40
2019-04-07T13:23:03.490Z,37.40
2019-04-07T13:25:54.420Z,35.70
2019-04-07T13:28:28.449Z,36.30
2019-04-07T13:31:21.645Z,34.70
2019-04-07T13:34:12.802Z,35.80
2019-04-07T13:37:06.934Z,37.60
2019-04-07T13:39:57.765Z,36.10
2019-04-07T13:42:48.283Z,37.10
2019-04-07T13:45:44.301Z,35.60
2019-04-07T13:48:24.550Z,36.00
2019-04-07T13:51:07.631Z,35.70
2019-04-07T13:53:52.325Z,35.30
2019-04-07T13:56:35.404Z,36.60
2019-04-07T13:59:18.143Z,38.50
2019-04-07T14:01:56.014Z,36.60
2019-04-07T14:04:46.829Z,38.40
2019-04-07T14:07:22.781Z,36.50
2019-04-07T14:09:57.094Z,36.10
2019-04-07T14:12:48.997Z,36.40
2019-04-07T14:15:48.809Z,37.80
2019-04-07T14:18:37.085Z,37.20
2019-04-07T14:21:24.369Z,36.40
2019-04-07T14:24:08.100Z,37.10
2019-04-07T14:26:41.225Z,37.10
2019-04-07T14:29:29.475Z,37.00
2019-04-07T14:32:18.384Z,35.90
2019-04-07T14:35:19.469Z,37.30
2019-04-07T14:38:16.051Z,36.10
2019-04-07T14:41:06.404Z,35.90
2019-04-07T14:43:48.601Z,36.90
2019-04-07T14:46:39.057Z,37.30
2019-04-07T14:49:16.041Z,37.40
2019-04-07T14:52:01.345Z,34.80
2019-04-07T14:54:34.614Z,36.00
2019-04-07T14:57:22.502Z,36.50
2019-04-07T15:00:12.690Z,34.80
2019-04-07T15:02:38.937Z,35.20
2019-04-07T15:05:13.760Z,35.60
2019-04-07T15:07:59.627Z,35.10
2019-04-07T15:10:27.605Z,35.90
2019-04-07T15:12:56.832Z,36.40
2019-04-07T15:15:22.521Z,36.60
2019-04-07T15:17:48.766Z,36.70
2019-04-07T15:20:14.558Z,34.60
2019-04-07T15:22:41.348Z,34.90
2019-04-07T15:25:09.052Z,34.20
2019-04-07T15:27:35.058Z,34.90
2019-04-07T15:30:00.672Z,36.40
2019-04-07T15:32:28.666Z,34.70
2019-04-07T15:34:53.072Z,35.20
2019-04-07T15:37:21.528Z,36.50
2019-04-07T15:39:45.884Z,36.00
2019-04-07T15:42:13.463Z,34.70
2019-04-07T15:44:39.643Z,36.10
2019-04-07T15:47:06.180Z,35.80
2019-04-07T15:49:32.140Z,35.70
2019-04-07T15:51:59.255Z,36.70
2019-04-07T15:54:25.418Z,36.80
2019-04-07T15:56:51.599Z,37.70
2019-04-07T15:59:20.639Z,38.00
2019-04-07T16:01:46.181Z,37.40
2019-04-07T16:04:11.796Z,37.90
2019-04-07T16:06:37.181Z,38.20
2019-04-07T16:09:16.679Z,37.20
2019-04-07T16:11:38.112Z,37.30
2019-04-07T16:14:08.706Z,38.80
2019-04-07T16:16:31.790Z,39.40
2019-04-07T16:18:57.226Z,40.00
2019-04-07T16:21:34.686Z,39.00
2019-04-07T16:24:00.122Z,38.80
2019-04-07T16:26:30.183Z,38.70
2019-04-07T16:28:54.035Z,39.30
2019-04-07T16:31:22.938Z,39.70
2019-04-07T16:33:46.612Z,40.20
2019-04-07T16:36:12.785Z,39.50
2019-04-07T16:38:38.549Z,38.10
2019-04-07T16:41:04.709Z,38.70
2019-04-07T16:43:32.348Z,39.00
2019-04-07T16:45:57.286Z,39.70
2019-04-07T16:48:22.907Z,39.70
2019-04-07T16:50:51.024Z,41.10
2019-04-07T16:53:16.265Z,40.50
2019-04-07T16:55:46.683Z,40.80
2019-04-07T16:58:11.667Z,41.80
2019-04-07T17:00:38.205Z,40.80
2019-04-07T17:03:04.451Z,41.50
2019-04-07T17:05:30.258Z,42.30
2019-04-07T17:07:56.917Z,41.60
2019-04-07T17:10:22.970Z,42.80
2019-04-07T17:12:48.404Z,42.10
2019-04-07T17:15:13.906Z,42.30
2019-04-07T17:17:39.958Z,42.10
2019-04-07T17:20:06.905Z,43.00
2019-04-07T17:22:33.726Z,43.10
2019-04-07T17:25:01.318Z,43.60
2019-04-07T17:27:27.431Z,43.60
2019-04-07T17:29:55.055Z,45.70
2019-04-07T17:32:20.021Z,45.60
2019-04-07T17:34:45.462Z,45.30
2019-04-07T17:37:11.541Z,45.10
2019-04-07T17:39:58.806Z,46.60
2019-04-07T17:42:27.297Z,46.00
2019-04-07T17:45:09.707Z,46.60
2019-04-07T17:48:00.378Z,48.80
2019-04-07T17:50:43.029Z,48.50
2019-04-07T17:53:33.106Z,48.50
2019-04-07T17:56:06.766Z,48.50
2019-04-07T17:58:55.437Z,48.90
2019-04-07T18:01:39.781Z,50.30
2019-04-07T18:04:31.195Z,52.50
2019-04-07T18:07:18.695Z,51.90
2019-04-07T18:10:02.776Z,52.90
2019-04-07T18:12:49.932Z,52.20
2019-04-07T18:15:27.899Z,53.80
2019-04-07T18:18:19.108Z,53.40
2019-04-07T18:20:51.847Z,53.80
2019-04-07T18:23:38.161Z,54.50
2019-04-07T18:26:16.358Z,55.60
2019-04-07T18:29:10.040Z,55.80
2019-04-07T18:31:57.388Z,56.40
2019-04-07T18:34:34.145Z,56.50
2019-04-07T18:37:18.408Z,57.50
2019-04-07T18:40:02.727Z,57.00
2019-04-07T18:42:41.405Z,57.50
2019-04-07T18:45:23.166Z,58.80
2019-04-07T18:48:08.085Z,58.80
2019-04-07T18:50:58.825Z,58.80
2019-04-07T18:53:43.400Z,58.60
2019-04-07T18:56:31.321Z,59.80
2019-04-07T18:59:07.514Z,59.70
2019-04-07T19:01:51.074Z,60.70
2019-04-07T19:04:53.566Z,61.00
2019-04-07T19:07:36.770Z,61.20
2019-04-07T19:10:33.491Z,61.50
2019-04-07T19:13:28.460Z,62.10
2019-04-07T19:16:19.439Z,62.00
2019-04-07T19:19:00.767Z,62.50
2019-04-07T19:21:48.456Z,62.50
2019-04-07T19:24:43.599Z,62.20
2019-04-07T19:27:31.462Z,63.00
2019-04-07T19:30:31.157Z,64.10
2019-04-07T19:33:30.394Z,63.60
2019-04-07T19:36:21.370Z,62.90
2019-04-07T19:38:58.514Z,63.80
2019-04-07T19:41:32.504Z,65.40
2019-04-07T19:44:09.378Z,66.40
2019-04-07T19:46:54.512Z,65.70
2019-04-07T19:49:38.992Z,66.30
2019-04-07T19:52:42.853Z,66.50
2019-04-07T19:55:30.333Z,67.20
2019-04-07T19:58:37.288Z,65.90
2019-04-07T20:01:23.365Z,65.80
2019-04-07T20:04:12.656Z,64.90
2019-04-07T20:06:56.361Z,64.40
2019-04-07T20:09:25.674Z,63.20
2019-04-07T20:12:09.178Z,62.90
2019-04-07T20:15:04.370Z,65.00
2019-04-07T20:17:43.047Z,63.30
2019-04-07T20:20:16.138Z,63.40
2019-04-07T20:22:59.978Z,64.50
2019-04-07T20:26:03.626Z,63.60
2019-04-07T20:28:54.965Z,65.10
2019-04-07T20:31:52.000Z,65.60
2019-04-07T20:34:40.254Z,65.60
2019-04-07T20:37:13.998Z,66.00
2019-04-07T20:39:59.338Z,66.20
2019-04-07T20:42:36.759Z,66.30
2019-04-07T20:45:29.189Z,67.20
2019-04-07T20:48:19.268Z,67.20
2019-04-07T20:50:58.726Z,67.70
2019-04-07T20:53:42.905Z,68.10
2019-04-07T20:56:34.060Z,69.20
2019-04-07T20:59:18.759Z,69.20
2019-04-07T21:02:07.117Z,69.80
2019-04-07T21:04:54.969Z,70.80
2019-04-07T21:07:29.773Z,71.60
2019-04-07T21:10:12.906Z,71.90
2019-04-07T21:12:56.870Z,73.20
2019-04-07T21:15:41.115Z,73.40
2019-04-07T21:18:37.613Z,73.30
2019-04-07T21:21:22.164Z,74.10
2019-04-07T21:24:18.219Z,75.60
2019-04-07T21:26:51.117Z,75.00
2019-04-07T21:29:26.429Z,76.00
2019-04-07T21:32:23.609Z,76.40
2019-04-07T21:35:06.733Z,77.10
2019-04-07T21:38:03.546Z,76.50
2019-04-07T21:40:45.884Z,76.90
2019-04-07T21:43:24.271Z,78.50
2019-04-07T21:46:03.212Z,79.00
2019-04-07T21:48:58.047Z,80.10
2019-04-07T21:51:45.892Z,78.90
2019-04-07T21:54:24.597Z,79.80
2019-04-07T21:57:07.932Z,79.90
2019-04-07T21:59:42.131Z,80.00
2019-04-07T22:02:26.511Z,81.20
2019-04-07T22:05:10.074Z,80.70
2019-04-07T22:07:46.291Z,81.60
2019-04-07T22:10:12.122Z,81.30
2019-04-07T22:12:38.033Z,81.40
2019-04-07T22:15:04.493Z,82.20
2019-04-07T22:17:34.229Z,82.90
2019-04-07T22:19:57.331Z,83.30
2019-04-07T22:22:24.117Z,83.60
2019-04-07T22:24:50.641Z,82.80
2019-04-07T22:27:21.210Z,83.20
2019-04-07T22:29:43.158Z,83.00
2019-04-07T22:32:08.650Z,82.80
2019-04-07T22:34:34.092Z,83.80
2019-04-07T22:37:12.228Z,85.80
2019-04-07T22:39:37.621Z,84.00
2019-04-07T22:42:02.954Z,84.80
2019-04-07T22:44:29.087Z,85.20
2019-04-07T22:46:54.662Z,85.20
2019-04-07T22:49:20.070Z,85.50
2019-04-07T22:51:47.067Z,85.50
2019-04-07T22:54:12.396Z,85.70
2019-04-07T22:56:39.437Z,86.80
2019-04-07T22:59:05.723Z,86.90
2019-04-07T23:01:31.414Z,86.90
2019-04-07T23:03:58.078Z,86.50
2019-04-07T23:06:24.334Z,87.70
2019-04-07T23:08:49.866Z,87.00
2019-04-07T23:11:16.101Z,87.90
2019-04-07T23:13:41.505Z,87.70
2019-04-07T23:16:12.866Z,87.40
2019-04-07T23:18:33.966Z,87.70
2019-04-07T23:20:59.935Z,87.40
2019-04-07T23:23:26.014Z,87.90
2019-04-07T23:25:51.503Z,88.20
2019-04-07T23:28:17.049Z,88.00
2019-04-07T23:30:42.961Z,89.40
2019-04-07T23:33:08.428Z,90.40
2019-04-07T23:35:33.738Z,88.70
2019-04-07T23:37:59.481Z,89.10
2019-04-07T23:40:25.716Z,89.40
2019-04-07T23:42:51.345Z,89.50
2019-04-07T23:45:16.789Z,90.50
2019-04-07T23:47:42.778Z,90.40
2019-04-07T23:50:09.218Z,91.30
2019-04-07T23:52:35.579Z,90.70
2019-04-07T23:55:01.008Z,90.70
2019-04-07T23:57:26.366Z,90.60
2019-04-07T23:59:51.743Z,90.20
